Sunbeam, Idaho
Current Conditions -  °F | °C
As of 12:55 AM on Monday 22 Dec 2014 (Local Time) from KLLJ Reporting Station
Overcast Overcast  
Wind Chill:   Ceiling: 6000
Heat Index:   Visibility: 10mi
Dew Point: -4°   Wind: 3mph
Humidity: 70%   Direction: NA
Pressure: 29.93"   Gusts: NA
Location:  44.3379°N, 114.824°W
Report Text: KLLJ 220755Z AUTO VRB03KT 10SM OVC060 01/M04 A2993 RMK AO2 SLP133 T00111039 $
Loading
Personal Weather Stations






























Interactive Weather Map New forecast layout! Learn more

10-Day Weather Forecast

Advertisements
Track Severe Weather on mobile